sensor_id;sensor_type;location;lat;lon;timestamp;P1;durP1;ratioP1;P2;durP2;ratioP2
26014;SDS011;13793;55.388;37.844;2023-06-26T00:02:12;31.93;;;25.68;;
26014;SDS011;13793;55.388;37.844;2023-06-26T00:04:53;33.63;;;25.37;;
26014;SDS011;13793;55.388;37.844;2023-06-26T00:07:24;38.17;;;27.73;;
26014;SDS011;13793;55.388;37.844;2023-06-26T00:10:05;37.45;;;26.70;;
26014;SDS011;13793;55.388;37.844;2023-06-26T00:12:36;39.90;;;27.93;;
26014;SDS011;13793;55.388;37.844;2023-06-26T00:15:17;37.95;;;28.83;;
26014;SDS011;13793;55.388;37.844;2023-06-26T00:17:48;35.08;;;26.85;;
26014;SDS011;13793;55.388;37.844;2023-06-26T00:20:29;34.15;;;25.77;;
26014;SDS011;13793;55.388;37.844;2023-06-26T00:23:01;31.42;;;24.77;;
26014;SDS011;13793;55.388;37.844;2023-06-26T00:25:44;33.13;;;25.48;;
26014;SDS011;13793;55.388;37.844;2023-06-26T00:28:24;31.23;;;23.05;;
26014;SDS011;13793;55.388;37.844;2023-06-26T00:30:55;34.10;;;23.05;;
26014;SDS011;13793;55.388;37.844;2023-06-26T00:33:36;30.88;;;23.35;;
26014;SDS011;13793;55.388;37.844;2023-06-26T00:36:07;28.80;;;22.58;;
26014;SDS011;13793;55.388;37.844;2023-06-26T00:38:51;28.92;;;22.00;;
26014;SDS011;13793;55.388;37.844;2023-06-26T00:41:22;27.07;;;22.30;;
26014;SDS011;13793;55.388;37.844;2023-06-26T00:44:07;26.02;;;21.62;;
26014;SDS011;13793;55.388;37.844;2023-06-26T00:46:36;28.00;;;21.62;;
26014;SDS011;13793;55.388;37.844;2023-06-26T00:49:17;26.65;;;21.12;;
26014;SDS011;13793;55.388;37.844;2023-06-26T00:51:48;25.20;;;20.80;;
26014;SDS011;13793;55.388;37.844;2023-06-26T00:54:29;27.50;;;22.10;;
26014;SDS011;13793;55.388;37.844;2023-06-26T00:57:00;28.83;;;21.97;;
26014;SDS011;13793;55.388;37.844;2023-06-26T00:59:40;27.90;;;21.23;;
26014;SDS011;13793;55.388;37.844;2023-06-26T01:02:11;28.17;;;20.77;;
26014;SDS011;13793;55.388;37.844;2023-06-26T01:04:54;27.37;;;20.60;;
26014;SDS011;13793;55.388;37.844;2023-06-26T01:07:25;26.55;;;20.60;;
26014;SDS011;13793;55.388;37.844;2023-06-26T01:10:06;27.85;;;20.80;;
26014;SDS011;13793;55.388;37.844;2023-06-26T01:12:39;25.48;;;19.35;;
26014;SDS011;13793;55.388;37.844;2023-06-26T01:15:20;24.98;;;18.73;;
26014;SDS011;13793;55.388;37.844;2023-06-26T01:17:52;25.15;;;19.80;;
26014;SDS011;13793;55.388;37.844;2023-06-26T01:20:37;28.65;;;20.80;;
26014;SDS011;13793;55.388;37.844;2023-06-26T01:23:22;27.05;;;20.37;;
26014;SDS011;13793;55.388;37.844;2023-06-26T01:28:49;27.65;;;18.87;;
26014;SDS011;13793;55.388;37.844;2023-06-26T01:31:30;25.40;;;20.27;;
26014;SDS011;13793;55.388;37.844;2023-06-26T01:34:03;30.60;;;22.40;;
26014;SDS011;13793;55.388;37.844;2023-06-26T01:36:44;28.75;;;21.65;;
26014;SDS011;13793;55.388;37.844;2023-06-26T01:39:17;27.25;;;21.27;;
26014;SDS011;13793;55.388;37.844;2023-06-26T01:41:58;29.87;;;20.77;;
26014;SDS011;13793;55.388;37.844;2023-06-26T01:44:29;27.70;;;20.82;;
26014;SDS011;13793;55.388;37.844;2023-06-26T01:47:10;26.07;;;21.30;;
26014;SDS011;13793;55.388;37.844;2023-06-26T01:50:07;23.98;;;19.67;;
26014;SDS011;13793;55.388;37.844;2023-06-26T01:52:46;25.75;;;20.72;;
26014;SDS011;13793;55.388;37.844;2023-06-26T01:55:39;25.82;;;19.98;;
26014;SDS011;13793;55.388;37.844;2023-06-26T01:58:10;27.30;;;19.90;;
26014;SDS011;13793;55.388;37.844;2023-06-26T02:00:51;23.57;;;19.23;;
26014;SDS011;13793;55.388;37.844;2023-06-26T02:03:22;26.80;;;20.95;;
26014;SDS011;13793;55.388;37.844;2023-06-26T02:06:03;24.10;;;19.37;;
26014;SDS011;13793;55.388;37.844;2023-06-26T02:08:34;30.08;;;20.32;;
26014;SDS011;13793;55.388;37.844;2023-06-26T02:11:15;26.95;;;20.97;;
26014;SDS011;13793;55.388;37.844;2023-06-26T02:13:46;24.75;;;19.07;;
26014;SDS011;13793;55.388;37.844;2023-06-26T02:16:26;22.95;;;18.32;;
26014;SDS011;13793;55.388;37.844;2023-06-26T02:18:58;24.00;;;19.20;;
26014;SDS011;13793;55.388;37.844;2023-06-26T02:21:38;24.60;;;19.12;;
26014;SDS011;13793;55.388;37.844;2023-06-26T02:24:09;22.07;;;19.07;;
26014;SDS011;13793;55.388;37.844;2023-06-26T02:26:50;21.87;;;19.27;;
26014;SDS011;13793;55.388;37.844;2023-06-26T02:29:21;25.17;;;19.75;;
26014;SDS011;13793;55.388;37.844;2023-06-26T02:32:02;26.27;;;20.80;;
26014;SDS011;13793;55.388;37.844;2023-06-26T02:34:33;23.40;;;19.57;;
26014;SDS011;13793;55.388;37.844;2023-06-26T02:37:14;28.12;;;21.07;;
26014;SDS011;13793;55.388;37.844;2023-06-26T02:39:45;25.75;;;20.15;;
26014;SDS011;13793;55.388;37.844;2023-06-26T02:42:26;25.75;;;19.95;;
26014;SDS011;13793;55.388;37.844;2023-06-26T02:45:00;25.55;;;20.10;;
26014;SDS011;13793;55.388;37.844;2023-06-26T02:47:41;24.75;;;18.73;;
26014;SDS011;13793;55.388;37.844;2023-06-26T02:50:12;25.10;;;17.98;;
26014;SDS011;13793;55.388;37.844;2023-06-26T02:53:13;22.48;;;18.20;;
26014;SDS011;13793;55.388;37.844;2023-06-26T02:55:45;23.18;;;18.02;;
26014;SDS011;13793;55.388;37.844;2023-06-26T02:58:26;23.07;;;17.95;;
26014;SDS011;13793;55.388;37.844;2023-06-26T03:00:57;22.93;;;17.98;;
26014;SDS011;13793;55.388;37.844;2023-06-26T03:03:38;21.73;;;17.77;;
26014;SDS011;13793;55.388;37.844;2023-06-26T03:06:22;23.87;;;17.23;;
26014;SDS011;13793;55.388;37.844;2023-06-26T03:08:53;22.25;;;17.52;;
26014;SDS011;13793;55.388;37.844;2023-06-26T03:11:34;20.85;;;17.00;;
26014;SDS011;13793;55.388;37.844;2023-06-26T03:14:05;20.68;;;17.48;;
26014;SDS011;13793;55.388;37.844;2023-06-26T03:16:46;19.55;;;16.62;;
26014;SDS011;13793;55.388;37.844;2023-06-26T03:19:17;19.70;;;16.97;;
26014;SDS011;13793;55.388;37.844;2023-06-26T03:22:00;18.95;;;16.50;;
26014;SDS011;13793;55.388;37.844;2023-06-26T03:24:31;19.10;;;16.20;;
26014;SDS011;13793;55.388;37.844;2023-06-26T03:27:12;18.17;;;15.23;;
26014;SDS011;13793;55.388;37.844;2023-06-26T03:29:43;17.87;;;14.85;;
26014;SDS011;13793;55.388;37.844;2023-06-26T03:32:24;21.60;;;16.32;;
26014;SDS011;13793;55.388;37.844;2023-06-26T03:34:56;19.00;;;14.87;;
26014;SDS011;13793;55.388;37.844;2023-06-26T03:37:37;20.62;;;14.60;;
26014;SDS011;13793;55.388;37.844;2023-06-26T03:40:09;22.42;;;15.43;;
26014;SDS011;13793;55.388;37.844;2023-06-26T03:42:50;20.05;;;16.37;;
26014;SDS011;13793;55.388;37.844;2023-06-26T03:45:21;18.73;;;15.48;;
26014;SDS011;13793;55.388;37.844;2023-06-26T03:48:03;20.62;;;16.25;;
26014;SDS011;13793;55.388;37.844;2023-06-26T03:50:33;16.02;;;14.33;;
26014;SDS011;13793;55.388;37.844;2023-06-26T03:53:15;15.85;;;13.53;;
26014;SDS011;13793;55.388;37.844;2023-06-26T03:55:46;16.62;;;13.38;;
26014;SDS011;13793;55.388;37.844;2023-06-26T03:58:27;15.83;;;12.33;;
26014;SDS011;13793;55.388;37.844;2023-06-26T04:00:58;13.83;;;11.22;;
26014;SDS011;13793;55.388;37.844;2023-06-26T04:03:39;14.50;;;11.63;;
26014;SDS011;13793;55.388;37.844;2023-06-26T04:06:11;12.55;;;10.75;;
26014;SDS011;13793;55.388;37.844;2023-06-26T04:08:52;13.53;;;10.80;;
26014;SDS011;13793;55.388;37.844;2023-06-26T04:11:24;13.50;;;11.03;;
26014;SDS011;13793;55.388;37.844;2023-06-26T04:14:11;12.58;;;11.15;;
26014;SDS011;13793;55.388;37.844;2023-06-26T04:16:43;13.53;;;11.60;;
26014;SDS011;13793;55.388;37.844;2023-06-26T04:19:24;12.60;;;11.30;;
26014;SDS011;13793;55.388;37.844;2023-06-26T04:21:55;12.47;;;11.05;;
26014;SDS011;13793;55.388;37.844;2023-06-26T04:24:36;11.40;;;10.08;;
26014;SDS011;13793;55.388;37.844;2023-06-26T04:27:17;13.62;;;10.48;;
26014;SDS011;13793;55.388;37.844;2023-06-26T04:29:48;11.75;;;10.28;;
26014;SDS011;13793;55.388;37.844;2023-06-26T04:32:29;11.00;;;9.83;;
26014;SDS011;13793;55.388;37.844;2023-06-26T04:35:00;10.58;;;9.38;;
26014;SDS011;13793;55.388;37.844;2023-06-26T04:37:44;10.72;;;9.68;;
26014;SDS011;13793;55.388;37.844;2023-06-26T04:40:15;10.58;;;9.58;;
26014;SDS011;13793;55.388;37.844;2023-06-26T04:42:56;10.85;;;9.75;;
26014;SDS011;13793;55.388;37.844;2023-06-26T04:45:26;11.93;;;10.18;;
26014;SDS011;13793;55.388;37.844;2023-06-26T04:48:07;10.45;;;9.30;;
26014;SDS011;13793;55.388;37.844;2023-06-26T04:50:37;11.20;;;9.80;;
26014;SDS011;13793;55.388;37.844;2023-06-26T04:53:20;9.60;;;8.65;;
26014;SDS011;13793;55.388;37.844;2023-06-26T04:55:51;10.10;;;9.10;;
26014;SDS011;13793;55.388;37.844;2023-06-26T04:58:32;9.48;;;8.58;;
26014;SDS011;13793;55.388;37.844;2023-06-26T05:01:03;11.10;;;8.45;;
26014;SDS011;13793;55.388;37.844;2023-06-26T05:03:51;9.73;;;8.35;;
26014;SDS011;13793;55.388;37.844;2023-06-26T05:06:23;9.73;;;8.80;;
26014;SDS011;13793;55.388;37.844;2023-06-26T05:09:03;11.05;;;9.95;;
26014;SDS011;13793;55.388;37.844;2023-06-26T05:11:34;11.90;;;10.80;;
26014;SDS011;13793;55.388;37.844;2023-06-26T05:14:15;13.05;;;11.78;;
26014;SDS011;13793;55.388;37.844;2023-06-26T05:16:46;13.18;;;11.78;;
26014;SDS011;13793;55.388;37.844;2023-06-26T05:19:28;12.30;;;11.08;;
26014;SDS011;13793;55.388;37.844;2023-06-26T05:22:00;12.30;;;11.00;;
26014;SDS011;13793;55.388;37.844;2023-06-26T05:24:46;11.38;;;10.28;;
26014;SDS011;13793;55.388;37.844;2023-06-26T05:27:17;10.28;;;9.38;;
26014;SDS011;13793;55.388;37.844;2023-06-26T05:30:00;9.93;;;8.93;;
26014;SDS011;13793;55.388;37.844;2023-06-26T05:32:44;8.10;;;7.20;;
26014;SDS011;13793;55.388;37.844;2023-06-26T05:35:28;7.70;;;7.00;;
26014;SDS011;13793;55.388;37.844;2023-06-26T05:40:58;7.05;;;6.30;;
26014;SDS011;13793;55.388;37.844;2023-06-26T05:43:30;6.65;;;6.05;;
26014;SDS011;13793;55.388;37.844;2023-06-26T05:46:10;7.10;;;6.40;;
26014;SDS011;13793;55.388;37.844;2023-06-26T05:48:41;8.23;;;6.50;;
26014;SDS011;13793;55.388;37.844;2023-06-26T05:51:22;7.08;;;5.85;;
26014;SDS011;13793;55.388;37.844;2023-06-26T05:53:54;7.05;;;6.35;;
26014;SDS011;13793;55.388;37.844;2023-06-26T05:56:36;7.45;;;6.75;;
26014;SDS011;13793;55.388;37.844;2023-06-26T05:59:07;7.47;;;6.78;;
26014;SDS011;13793;55.388;37.844;2023-06-26T06:01:48;7.08;;;6.40;;
26014;SDS011;13793;55.388;37.844;2023-06-26T06:04:19;8.10;;;7.30;;
26014;SDS011;13793;55.388;37.844;2023-06-26T06:07:00;7.10;;;6.50;;
26014;SDS011;13793;55.388;37.844;2023-06-26T06:09:43;6.92;;;6.33;;
26014;SDS011;13793;55.388;37.844;2023-06-26T06:12:24;6.67;;;5.97;;
26014;SDS011;13793;55.388;37.844;2023-06-26T06:14:55;6.97;;;5.80;;
26014;SDS011;13793;55.388;37.844;2023-06-26T06:17:36;6.03;;;5.42;;
26014;SDS011;13793;55.388;37.844;2023-06-26T06:20:07;5.72;;;5.22;;
26014;SDS011;13793;55.388;37.844;2023-06-26T06:22:55;6.95;;;5.28;;
26014;SDS011;13793;55.388;37.844;2023-06-26T06:25:26;6.00;;;5.40;;
26014;SDS011;13793;55.388;37.844;2023-06-26T06:28:07;4.95;;;4.55;;
26014;SDS011;13793;55.388;37.844;2023-06-26T06:30:38;5.70;;;5.20;;
26014;SDS011;13793;55.388;37.844;2023-06-26T06:33:19;6.75;;;5.97;;
26014;SDS011;13793;55.388;37.844;2023-06-26T06:36:02;6.95;;;5.60;;
26014;SDS011;13793;55.388;37.844;2023-06-26T06:38:43;6.03;;;5.42;;
26014;SDS011;13793;55.388;37.844;2023-06-26T06:41:14;6.60;;;6.00;;
26014;SDS011;13793;55.388;37.844;2023-06-26T06:43:55;6.58;;;5.97;;
26014;SDS011;13793;55.388;37.844;2023-06-26T06:46:26;6.40;;;5.80;;
26014;SDS011;13793;55.388;37.844;2023-06-26T06:49:08;6.53;;;5.90;;
26014;SDS011;13793;55.388;37.844;2023-06-26T06:51:38;7.03;;;6.28;;
26014;SDS011;13793;55.388;37.844;2023-06-26T06:54:20;7.03;;;6.33;;
26014;SDS011;13793;55.388;37.844;2023-06-26T06:56:51;7.15;;;6.45;;
26014;SDS011;13793;55.388;37.844;2023-06-26T06:59:31;8.03;;;7.08;;
26014;SDS011;13793;55.388;37.844;2023-06-26T07:02:03;7.30;;;6.60;;
26014;SDS011;13793;55.388;37.844;2023-06-26T07:04:44;11.35;;;9.63;;
26014;SDS011;13793;55.388;37.844;2023-06-26T07:07:17;11.10;;;9.13;;
26014;SDS011;13793;55.388;37.844;2023-06-26T07:09:59;11.68;;;10.48;;
26014;SDS011;13793;55.388;37.844;2023-06-26T07:12:30;9.90;;;8.90;;
26014;SDS011;13793;55.388;37.844;2023-06-26T07:15:18;9.55;;;8.55;;
26014;SDS011;13793;55.388;37.844;2023-06-26T07:17:49;9.00;;;8.20;;
26014;SDS011;13793;55.388;37.844;2023-06-26T07:20:30;8.35;;;7.50;;
26014;SDS011;13793;55.388;37.844;2023-06-26T07:23:01;10.03;;;7.28;;
26014;SDS011;13793;55.388;37.844;2023-06-26T07:25:42;7.40;;;6.65;;
26014;SDS011;13793;55.388;37.844;2023-06-26T07:28:13;6.78;;;6.17;;
26014;SDS011;13793;55.388;37.844;2023-06-26T07:30:54;7.60;;;6.90;;
26014;SDS011;13793;55.388;37.844;2023-06-26T07:33:25;10.30;;;7.33;;
26014;SDS011;13793;55.388;37.844;2023-06-26T07:36:06;8.45;;;7.65;;
26014;SDS011;13793;55.388;37.844;2023-06-26T07:38:37;9.78;;;8.78;;
26014;SDS011;13793;55.388;37.844;2023-06-26T07:41:18;9.68;;;8.78;;
26014;SDS011;13793;55.388;37.844;2023-06-26T07:43:49;9.80;;;8.58;;
26014;SDS011;13793;55.388;37.844;2023-06-26T07:46:30;8.75;;;7.95;;
26014;SDS011;13793;55.388;37.844;2023-06-26T07:49:01;7.47;;;6.78;;
26014;SDS011;13793;55.388;37.844;2023-06-26T07:51:42;7.60;;;6.90;;
26014;SDS011;13793;55.388;37.844;2023-06-26T07:54:13;8.28;;;7.25;;
26014;SDS011;13793;55.388;37.844;2023-06-26T07:56:54;7.90;;;7.10;;
26014;SDS011;13793;55.388;37.844;2023-06-26T07:59:29;8.03;;;7.33;;
26014;SDS011;13793;55.388;37.844;2023-06-26T08:02:10;7.47;;;6.78;;
26014;SDS011;13793;55.388;37.844;2023-06-26T08:04:43;7.35;;;6.65;;
26014;SDS011;13793;55.388;37.844;2023-06-26T08:07:24;6.85;;;6.15;;
26014;SDS011;13793;55.388;37.844;2023-06-26T08:09:56;7.00;;;6.22;;
26014;SDS011;13793;55.388;37.844;2023-06-26T08:12:37;6.42;;;5.83;;
26014;SDS011;13793;55.388;37.844;2023-06-26T08:17:52;7.30;;;6.67;;
26014;SDS011;13793;55.388;37.844;2023-06-26T08:20:23;7.50;;;6.83;;
26014;SDS011;13793;55.388;37.844;2023-06-26T08:23:05;7.15;;;6.55;;
26014;SDS011;13793;55.388;37.844;2023-06-26T08:25:36;6.85;;;6.25;;
26014;SDS011;13793;55.388;37.844;2023-06-26T08:28:17;7.75;;;6.50;;
26014;SDS011;13793;55.388;37.844;2023-06-26T08:30:48;7.15;;;6.55;;
26014;SDS011;13793;55.388;37.844;2023-06-26T08:33:29;7.40;;;6.30;;
26014;SDS011;13793;55.388;37.844;2023-06-26T08:36:00;6.67;;;5.97;;
26014;SDS011;13793;55.388;37.844;2023-06-26T08:38:41;6.78;;;6.03;;
26014;SDS011;13793;55.388;37.844;2023-06-26T08:41:14;7.00;;;6.40;;
26014;SDS011;13793;55.388;37.844;2023-06-26T08:43:55;6.28;;;5.67;;
26014;SDS011;13793;55.388;37.844;2023-06-26T08:46:26;6.28;;;5.78;;
26014;SDS011;13793;55.388;37.844;2023-06-26T08:52:02;6.12;;;5.62;;
26014;SDS011;13793;55.388;37.844;2023-06-26T08:54:36;6.65;;;5.95;;
26014;SDS011;13793;55.388;37.844;2023-06-26T08:57:21;6.95;;;5.87;;
26014;SDS011;13793;55.388;37.844;2023-06-26T08:59:53;6.40;;;5.80;;
26014;SDS011;13793;55.388;37.844;2023-06-26T09:02:35;6.10;;;5.50;;
26014;SDS011;13793;55.388;37.844;2023-06-26T09:05:06;6.33;;;5.72;;
26014;SDS011;13793;55.388;37.844;2023-06-26T09:07:48;8.03;;;5.58;;
26014;SDS011;13793;55.388;37.844;2023-06-26T09:10:20;5.92;;;5.42;;
26014;SDS011;13793;55.388;37.844;2023-06-26T09:13:02;6.70;;;5.80;;
26014;SDS011;13793;55.388;37.844;2023-06-26T09:15:41;5.72;;;5.12;;
26014;SDS011;13793;55.388;37.844;2023-06-26T09:18:24;5.40;;;5.00;;
26014;SDS011;13793;55.388;37.844;2023-06-26T09:20:55;5.62;;;4.92;;
26014;SDS011;13793;55.388;37.844;2023-06-26T09:23:36;5.05;;;4.65;;
26014;SDS011;13793;55.388;37.844;2023-06-26T09:26:07;6.50;;;5.60;;
26014;SDS011;13793;55.388;37.844;2023-06-26T09:28:48;5.72;;;5.17;;
26014;SDS011;13793;55.388;37.844;2023-06-26T09:31:19;5.62;;;5.10;;
26014;SDS011;13793;55.388;37.844;2023-06-26T09:34:12;5.37;;;4.90;;
26014;SDS011;13793;55.388;37.844;2023-06-26T09:36:43;5.10;;;4.70;;
26014;SDS011;13793;55.388;37.844;2023-06-26T09:39:26;7.03;;;4.92;;
26014;SDS011;13793;55.388;37.844;2023-06-26T09:41:57;5.92;;;4.80;;
26014;SDS011;13793;55.388;37.844;2023-06-26T09:44:42;5.70;;;5.15;;
26014;SDS011;13793;55.388;37.844;2023-06-26T09:47:16;5.65;;;5.15;;
26014;SDS011;13793;55.388;37.844;2023-06-26T09:49:59;5.58;;;4.97;;
26014;SDS011;13793;55.388;37.844;2023-06-26T09:52:35;5.87;;;5.30;;
26014;SDS011;13793;55.388;37.844;2023-06-26T09:55:15;5.75;;;5.25;;
26014;SDS011;13793;55.388;37.844;2023-06-26T09:57:47;7.08;;;5.22;;
26014;SDS011;13793;55.388;37.844;2023-06-26T10:00:32;5.72;;;4.95;;
26014;SDS011;13793;55.388;37.844;2023-06-26T10:03:03;5.30;;;4.80;;
26014;SDS011;13793;55.388;37.844;2023-06-26T10:05:44;6.45;;;5.15;;
26014;SDS011;13793;55.388;37.844;2023-06-26T10:08:16;5.28;;;4.87;;
26014;SDS011;13793;55.388;37.844;2023-06-26T10:10:57;5.62;;;5.15;;
26014;SDS011;13793;55.388;37.844;2023-06-26T10:13:30;5.22;;;4.72;;
26014;SDS011;13793;55.388;37.844;2023-06-26T10:16:12;5.60;;;5.10;;
26014;SDS011;13793;55.388;37.844;2023-06-26T10:18:45;6.00;;;5.00;;
26014;SDS011;13793;55.388;37.844;2023-06-26T10:21:26;5.50;;;5.00;;
26014;SDS011;13793;55.388;37.844;2023-06-26T10:23:58;5.40;;;4.33;;
26014;SDS011;13793;55.388;37.844;2023-06-26T10:26:42;5.30;;;4.80;;
26014;SDS011;13793;55.388;37.844;2023-06-26T10:29:14;9.75;;;4.87;;
26014;SDS011;13793;55.388;37.844;2023-06-26T10:31:58;6.00;;;5.00;;
26014;SDS011;13793;55.388;37.844;2023-06-26T10:34:39;5.75;;;4.83;;
26014;SDS011;13793;55.388;37.844;2023-06-26T10:37:11;5.03;;;4.53;;
26014;SDS011;13793;55.388;37.844;2023-06-26T10:39:52;5.30;;;4.80;;
26014;SDS011;13793;55.388;37.844;2023-06-26T10:42:37;6.20;;;5.12;;
26014;SDS011;13793;55.388;37.844;2023-06-26T10:45:21;6.17;;;5.42;;
26014;SDS011;13793;55.388;37.844;2023-06-26T10:47:52;5.47;;;4.97;;
26014;SDS011;13793;55.388;37.844;2023-06-26T10:50:33;6.17;;;4.85;;
26014;SDS011;13793;55.388;37.844;2023-06-26T10:53:08;6.12;;;4.72;;
26014;SDS011;13793;55.388;37.844;2023-06-26T10:56:10;5.65;;;5.05;;
26014;SDS011;13793;55.388;37.844;2023-06-26T10:58:41;6.90;;;4.92;;
26014;SDS011;13793;55.388;37.844;2023-06-26T11:01:24;5.55;;;5.05;;
26014;SDS011;13793;55.388;37.844;2023-06-26T11:07:16;5.67;;;5.08;;
26014;SDS011;13793;55.388;37.844;2023-06-26T11:12:47;5.70;;;5.20;;
26014;SDS011;13793;55.388;37.844;2023-06-26T11:15:49;5.12;;;4.72;;
26014;SDS011;13793;55.388;37.844;2023-06-26T11:18:18;5.42;;;4.97;;
26014;SDS011;13793;55.388;37.844;2023-06-26T11:21:06;6.60;;;5.10;;
26014;SDS011;13793;55.388;37.844;2023-06-26T11:23:37;5.20;;;4.70;;
26014;SDS011;13793;55.388;37.844;2023-06-26T11:26:30;4.78;;;4.28;;
26014;SDS011;13793;55.388;37.844;2023-06-26T11:29:02;5.67;;;4.87;;
26014;SDS011;13793;55.388;37.844;2023-06-26T11:31:43;5.37;;;4.70;;
26014;SDS011;13793;55.388;37.844;2023-06-26T11:34:14;5.53;;;4.45;;
26014;SDS011;13793;55.388;37.844;2023-06-26T11:36:56;5.37;;;4.47;;
26014;SDS011;13793;55.388;37.844;2023-06-26T11:39:29;6.55;;;4.53;;
26014;SDS011;13793;55.388;37.844;2023-06-26T11:42:22;4.97;;;4.47;;
26014;SDS011;13793;55.388;37.844;2023-06-26T11:44:54;5.28;;;4.78;;
26014;SDS011;13793;55.388;37.844;2023-06-26T11:47:35;5.45;;;4.92;;
26014;SDS011;13793;55.388;37.844;2023-06-26T11:50:07;5.83;;;4.85;;
26014;SDS011;13793;55.388;37.844;2023-06-26T11:52:53;5.00;;;4.50;;
26014;SDS011;13793;55.388;37.844;2023-06-26T11:55:25;5.78;;;4.95;;
26014;SDS011;13793;55.388;37.844;2023-06-26T11:58:06;5.22;;;4.72;;
26014;SDS011;13793;55.388;37.844;2023-06-26T12:00:43;5.17;;;4.25;;
26014;SDS011;13793;55.388;37.844;2023-06-26T12:03:24;5.28;;;4.83;;
26014;SDS011;13793;55.388;37.844;2023-06-26T12:05:57;4.70;;;4.25;;
26014;SDS011;13793;55.388;37.844;2023-06-26T12:08:39;5.20;;;4.70;;
26014;SDS011;13793;55.388;37.844;2023-06-26T12:11:10;5.92;;;4.67;;
26014;SDS011;13793;55.388;37.844;2023-06-26T12:13:52;5.65;;;4.83;;
26014;SDS011;13793;55.388;37.844;2023-06-26T12:16:23;5.20;;;4.70;;
26014;SDS011;13793;55.388;37.844;2023-06-26T12:19:05;6.87;;;4.85;;
26014;SDS011;13793;55.388;37.844;2023-06-26T12:24:23;5.53;;;4.78;;
26014;SDS011;13793;55.388;37.844;2023-06-26T12:26:54;5.25;;;4.70;;
26014;SDS011;13793;55.388;37.844;2023-06-26T12:29:36;5.35;;;4.85;;
26014;SDS011;13793;55.388;37.844;2023-06-26T12:32:08;5.50;;;4.78;;
26014;SDS011;13793;55.388;37.844;2023-06-26T12:34:49;6.45;;;4.80;;
26014;SDS011;13793;55.388;37.844;2023-06-26T12:37:21;5.08;;;4.58;;
26014;SDS011;13793;55.388;37.844;2023-06-26T12:40:03;5.17;;;4.75;;
26014;SDS011;13793;55.388;37.844;2023-06-26T12:42:36;5.85;;;5.25;;
26014;SDS011;13793;55.388;37.844;2023-06-26T12:45:17;9.03;;;6.30;;
26014;SDS011;13793;55.388;37.844;2023-06-26T12:47:49;6.17;;;5.58;;
26014;SDS011;13793;55.388;37.844;2023-06-26T12:50:36;7.17;;;5.33;;
26014;SDS011;13793;55.388;37.844;2023-06-26T12:53:03;6.50;;;5.35;;
26014;SDS011;13793;55.388;37.844;2023-06-26T12:55:44;6.08;;;5.53;;
26014;SDS011;13793;55.388;37.844;2023-06-26T12:58:15;5.87;;;5.28;;
26014;SDS011;13793;55.388;37.844;2023-06-26T13:00:57;10.72;;;6.97;;
26014;SDS011;13793;55.388;37.844;2023-06-26T13:03:27;6.53;;;5.83;;
26014;SDS011;13793;55.388;37.844;2023-06-26T13:06:09;5.80;;;5.10;;
26014;SDS011;13793;55.388;37.844;2023-06-26T13:08:40;6.45;;;5.72;;
26014;SDS011;13793;55.388;37.844;2023-06-26T13:11:22;7.83;;;5.50;;
26014;SDS011;13793;55.388;37.844;2023-06-26T13:13:53;9.20;;;6.62;;
26014;SDS011;13793;55.388;37.844;2023-06-26T13:16:34;9.48;;;6.83;;
26014;SDS011;13793;55.388;37.844;2023-06-26T13:19:05;6.47;;;5.20;;
26014;SDS011;13793;55.388;37.844;2023-06-26T13:21:47;5.97;;;5.37;;
26014;SDS011;13793;55.388;37.844;2023-06-26T13:24:18;7.50;;;5.55;;
26014;SDS011;13793;55.388;37.844;2023-06-26T13:26:59;6.35;;;5.72;;
26014;SDS011;13793;55.388;37.844;2023-06-26T13:29:31;5.50;;;5.00;;
26014;SDS011;13793;55.388;37.844;2023-06-26T13:32:11;5.67;;;5.08;;
26014;SDS011;13793;55.388;37.844;2023-06-26T13:34:42;5.65;;;5.10;;
26014;SDS011;13793;55.388;37.844;2023-06-26T13:37:24;6.33;;;5.60;;
26014;SDS011;13793;55.388;37.844;2023-06-26T13:39:55;6.37;;;5.30;;
26014;SDS011;13793;55.388;37.844;2023-06-26T13:42:37;6.45;;;5.55;;
26014;SDS011;13793;55.388;37.844;2023-06-26T13:45:09;6.08;;;5.33;;
26014;SDS011;13793;55.388;37.844;2023-06-26T13:47:50;6.65;;;5.40;;
26014;SDS011;13793;55.388;37.844;2023-06-26T13:50:33;8.73;;;5.42;;
26014;SDS011;13793;55.388;37.844;2023-06-26T13:53:15;6.03;;;5.40;;
26014;SDS011;13793;55.388;37.844;2023-06-26T13:55:46;8.13;;;5.37;;
26014;SDS011;13793;55.388;37.844;2023-06-26T13:58:27;6.50;;;5.78;;
26014;SDS011;13793;55.388;37.844;2023-06-26T14:01:00;6.97;;;5.75;;
26014;SDS011;13793;55.388;37.844;2023-06-26T14:03:42;8.18;;;5.17;;
26014;SDS011;13793;55.388;37.844;2023-06-26T14:06:13;5.92;;;5.37;;
26014;SDS011;13793;55.388;37.844;2023-06-26T14:08:54;6.17;;;5.67;;
26014;SDS011;13793;55.388;37.844;2023-06-26T14:11:25;5.92;;;5.33;;
26014;SDS011;13793;55.388;37.844;2023-06-26T14:14:06;7.65;;;5.50;;
26014;SDS011;13793;55.388;37.844;2023-06-26T14:16:37;6.28;;;5.33;;
26014;SDS011;13793;55.388;37.844;2023-06-26T14:19:20;5.92;;;5.30;;
26014;SDS011;13793;55.388;37.844;2023-06-26T14:21:51;6.17;;;5.53;;
26014;SDS011;13793;55.388;37.844;2023-06-26T14:24:32;5.55;;;5.05;;
26014;SDS011;13793;55.388;37.844;2023-06-26T14:27:03;5.78;;;5.28;;
26014;SDS011;13793;55.388;37.844;2023-06-26T14:29:44;6.33;;;5.72;;
26014;SDS011;13793;55.388;37.844;2023-06-26T14:32:15;6.83;;;6.12;;
26014;SDS011;13793;55.388;37.844;2023-06-26T14:34:57;5.72;;;5.20;;
26014;SDS011;13793;55.388;37.844;2023-06-26T14:37:30;6.58;;;5.97;;
26014;SDS011;13793;55.388;37.844;2023-06-26T14:40:11;6.20;;;5.60;;
26014;SDS011;13793;55.388;37.844;2023-06-26T14:42:42;6.65;;;6.03;;
26014;SDS011;13793;55.388;37.844;2023-06-26T14:45:24;7.40;;;5.50;;
26014;SDS011;13793;55.388;37.844;2023-06-26T14:47:55;8.08;;;7.28;;
26014;SDS011;13793;55.388;37.844;2023-06-26T14:50:36;9.10;;;8.05;;
26014;SDS011;13793;55.388;37.844;2023-06-26T14:53:23;7.72;;;7.00;;
26014;SDS011;13793;55.388;37.844;2023-06-26T14:55:54;10.40;;;9.13;;
26014;SDS011;13793;55.388;37.844;2023-06-26T14:58:35;7.62;;;6.20;;
26014;SDS011;13793;55.388;37.844;2023-06-26T15:01:06;8.23;;;6.20;;
26014;SDS011;13793;55.388;37.844;2023-06-26T15:04:00;6.58;;;5.30;;
26014;SDS011;13793;55.388;37.844;2023-06-26T15:06:31;6.08;;;5.45;;
26014;SDS011;13793;55.388;37.844;2023-06-26T15:09:12;6.53;;;5.15;;
26014;SDS011;13793;55.388;37.844;2023-06-26T15:11:43;5.45;;;4.95;;
26014;SDS011;13793;55.388;37.844;2023-06-26T15:14:24;7.75;;;6.95;;
26014;SDS011;13793;55.388;37.844;2023-06-26T15:16:55;9.80;;;7.75;;
26014;SDS011;13793;55.388;37.844;2023-06-26T15:19:37;6.80;;;6.10;;
26014;SDS011;13793;55.388;37.844;2023-06-26T15:22:09;21.12;;;16.10;;
26014;SDS011;13793;55.388;37.844;2023-06-26T15:24:51;112.00;;;87.35;;
26014;SDS011;13793;55.388;37.844;2023-06-26T15:27:21;31.65;;;23.80;;
26014;SDS011;13793;55.388;37.844;2023-06-26T15:30:03;23.07;;;20.55;;
26014;SDS011;13793;55.388;37.844;2023-06-26T15:32:35;28.02;;;24.02;;
26014;SDS011;13793;55.388;37.844;2023-06-26T15:35:16;9.20;;;6.80;;
26014;SDS011;13793;55.388;37.844;2023-06-26T15:37:47;5.75;;;4.80;;
26014;SDS011;13793;55.388;37.844;2023-06-26T15:40:28;5.30;;;4.80;;
26014;SDS011;13793;55.388;37.844;2023-06-26T15:42:59;6.22;;;5.00;;
26014;SDS011;13793;55.388;37.844;2023-06-26T15:45:40;80.42;;;71.67;;